Time,TemperatureF,DewpointF,PressureIn,WindDirection,WindDirectionDegrees,WindSpeedMPH,WindSpeedGustMPH,Humidity,HourlyPrecipIn,Conditions,Clouds,dailyrainin,SoftwareType,DateUTC
2013-04-20 00:06:00,29.0,21.0,29.94,NNW,345,13.0,18.0,72,0.00,,,0.01,weatherlink.com 1.10,2013-04-20 05:06:00,
2013-04-20 00:21:00,28.9,21.0,29.94,NNW,333,7.0,17.0,72,0.00,,,0.01,weatherlink.com 1.10,2013-04-20 05:21:00,
2013-04-20 00:36:00,28.8,21.0,29.95,NW,321,4.0,14.0,72,0.00,,,0.01,weatherlink.com 1.10,2013-04-20 05:36:00,
2013-04-20 00:52:00,28.7,21.0,29.96,NW,326,7.0,18.0,73,0.00,,,0.01,weatherlink.com 1.10,2013-04-20 05:52:00,
2013-04-20 01:06:00,28.6,21.0,29.96,NW,311,11.0,13.0,74,0.00,,,0.01,weatherlink.com 1.10,2013-04-20 06:06:00,
2013-04-20 01:21:00,28.5,21.0,29.97,NW,317,7.0,14.0,73,0.00,,,0.01,weatherlink.com 1.10,2013-04-20 06:21:00,
2013-04-20 01:36:00,28.4,21.0,29.97,NNW,344,9.0,10.0,74,0.00,,,0.01,weatherlink.com 1.10,2013-04-20 06:36:00,
2013-04-20 01:51:00,28.4,21.0,29.98,NW,315,9.0,15.0,73,0.00,,,0.01,weatherlink.com 1.10,2013-04-20 06:51:00,
2013-04-20 02:06:00,28.3,21.0,29.99,NW,320,5.0,8.0,75,0.00,,,0.01,weatherlink.com 1.10,2013-04-20 07:06:00,
2013-04-20 02:21:00,28.1,21.0,29.99,WNW,282,7.0,12.0,76,0.00,,,0.01,weatherlink.com 1.10,2013-04-20 07:21:00,
2013-04-20 02:36:00,28.0,21.0,29.99,WNW,290,3.0,10.0,76,0.00,,,0.01,weatherlink.com 1.10,2013-04-20 07:36:00,
2013-04-20 02:51:00,27.9,21.0,30.00,NW,311,8.0,11.0,76,0.00,,,0.01,weatherlink.com 1.10,2013-04-20 07:51:00,
2013-04-20 03:06:00,27.8,21.0,30.01,NW,315,6.0,10.0,74,0.00,,,0.01,weatherlink.com 1.10,2013-04-20 08:06:00,
2013-04-20 03:21:00,27.6,20.0,30.02,NW,321,4.0,8.0,74,0.00,,,0.01,weatherlink.com 1.10,2013-04-20 08:21:00,
2013-04-20 03:36:00,27.4,20.0,30.03,WNW,302,7.0,8.0,74,0.00,,,0.01,weatherlink.com 1.10,2013-04-20 08:36:00,
2013-04-20 03:51:00,27.2,20.0,30.04,NW,309,6.0,9.0,74,0.00,,,0.01,weatherlink.com 1.10,2013-04-20 08:51:00,
2013-04-20 04:07:00,27.0,20.0,30.04,NNW,329,7.0,8.0,74,0.00,,,0.01,weatherlink.com 1.10,2013-04-20 09:07:00,
2013-04-20 04:22:00,26.8,20.0,30.05,NW,309,3.0,9.0,74,0.00,,,0.01,weatherlink.com 1.10,2013-04-20 09:22:00,
2013-04-20 04:37:00,26.5,19.0,30.05,WNW,303,4.0,7.0,74,0.00,,,0.01,weatherlink.com 1.10,2013-04-20 09:37:00,
2013-04-20 04:52:00,26.2,19.0,30.06,NW,309,4.0,7.0,75,0.00,,,0.01,weatherlink.com 1.10,2013-04-20 09:52:00,
2013-04-20 05:07:00,26.0,19.0,30.07,NW,305,6.0,8.0,76,0.00,,,0.01,weatherlink.com 1.10,2013-04-20 10:07:00,
2013-04-20 05:22:00,25.8,19.0,30.07,WNW,294,2.0,6.0,76,0.00,,,0.01,weatherlink.com 1.10,2013-04-20 10:22:00,
2013-04-20 05:37:00,25.3,19.0,30.08,WNW,284,1.0,4.0,78,0.00,,,0.00,weatherlink.com 1.10,2013-04-20 10:37:00,
2013-04-20 05:52:00,24.8,19.0,30.09,West,281,0.0,2.0,79,0.00,,,0.00,weatherlink.com 1.10,2013-04-20 10:52:00,
2013-04-20 06:07:00,24.3,19.0,30.09,West,279,0.0,3.0,80,0.00,,,0.00,weatherlink.com 1.10,2013-04-20 11:07:00,
2013-04-20 06:22:00,24.1,19.0,30.10,West,277,1.0,5.0,82,0.00,,,0.00,weatherlink.com 1.10,2013-04-20 11:22:00,
2013-04-20 06:37:00,24.2,20.0,30.11,West,265,1.0,4.0,83,0.00,,,0.00,weatherlink.com 1.10,2013-04-20 11:37:00,
2013-04-20 06:52:00,24.9,20.0,30.12,WNW,296,4.0,7.0,83,0.00,,,0.00,weatherlink.com 1.10,2013-04-20 11:52:00,
2013-04-20 07:07:00,25.8,21.0,30.13,NW,314,5.0,7.0,81,0.00,,,0.00,weatherlink.com 1.10,2013-04-20 12:07:00,
2013-04-20 07:22:00,27.1,21.0,30.14,WNW,294,7.0,9.0,78,0.00,,,0.00,weatherlink.com 1.10,2013-04-20 12:22:00,
2013-04-20 07:37:00,27.8,20.0,30.15,North,355,7.0,14.0,73,0.00,,,0.00,weatherlink.com 1.10,2013-04-20 12:37:00,
2013-04-20 07:52:00,28.2,20.0,30.16,NNW,341,7.0,13.0,72,0.00,,,0.00,weatherlink.com 1.10,2013-04-20 12:52:00,
2013-04-20 08:07:00,28.7,20.0,30.17,NW,305,4.0,13.0,71,0.00,,,0.00,weatherlink.com 1.10,2013-04-20 13:07:00,
2013-04-20 08:22:00,29.4,19.0,30.18,NNW,338,8.0,16.0,64,0.00,,,0.00,weatherlink.com 1.10,2013-04-20 13:22:00,
2013-04-20 08:37:00,29.6,18.0,30.19,North,11,7.0,16.0,61,0.00,,,0.00,weatherlink.com 1.10,2013-04-20 13:37:00,
2013-04-20 08:52:00,29.7,15.0,30.19,NNW,341,15.0,17.0,55,0.00,,,0.00,weatherlink.com 1.10,2013-04-20 13:52:00,
2013-04-20 09:07:00,30.3,15.0,30.20,NW,305,8.0,16.0,53,0.00,,,0.00,weatherlink.com 1.10,2013-04-20 14:07:00,
2013-04-20 09:22:00,30.6,14.0,30.20,West,266,10.0,19.0,51,0.00,,,0.00,weatherlink.com 1.10,2013-04-20 14:22:00,
2013-04-20 09:38:00,30.9,13.0,30.21,NW,323,13.0,23.0,47,0.00,,,0.00,weatherlink.com 1.10,2013-04-20 14:38:00,
2013-04-20 09:53:00,31.6,13.0,30.22,NNW,331,7.0,21.0,46,0.00,,,0.00,weatherlink.com 1.10,2013-04-20 14:53:00,
2013-04-20 10:08:00,31.9,14.0,30.23,NNW,329,6.0,20.0,48,0.00,,,0.00,weatherlink.com 1.10,2013-04-20 15:08:00,
2013-04-20 10:23:00,32.4,13.0,30.23,NNW,328,8.0,20.0,45,0.00,,,0.00,weatherlink.com 1.10,2013-04-20 15:23:00,
2013-04-20 10:38:00,33.0,14.0,30.24,NW,313,13.0,21.0,45,0.00,,,0.00,weatherlink.com 1.10,2013-04-20 15:38:00,
2013-04-20 10:53:00,33.8,13.0,30.25,NW,315,10.0,16.0,43,0.00,,,0.00,weatherlink.com 1.10,2013-04-20 15:53:00,
2013-04-20 11:08:00,34.0,13.0,30.25,NNW,342,8.0,18.0,42,0.00,,,0.00,weatherlink.com 1.10,2013-04-20 16:08:00,
2013-04-20 11:23:00,33.6,12.0,30.25,NNW,340,9.0,21.0,41,0.00,,,0.00,weatherlink.com 1.10,2013-04-20 16:23:00,
2013-04-20 11:38:00,34.5,13.0,30.26,West,280,5.0,22.0,41,0.00,,,0.00,weatherlink.com 1.10,2013-04-20 16:38:00,
2013-04-20 11:53:00,35.7,13.0,30.26,SW,230,10.0,19.0,39,0.00,,,0.00,weatherlink.com 1.10,2013-04-20 16:53:00,
2013-04-20 12:08:00,35.3,13.0,30.26,NW,315,8.0,15.0,40,0.00,,,0.00,weatherlink.com 1.10,2013-04-20 17:08:00,
2013-04-20 12:23:00,36.2,13.0,30.26,NNW,336,11.0,15.0,39,0.00,,,0.00,weatherlink.com 1.10,2013-04-20 17:23:00,
2013-04-20 12:38:00,36.8,14.0,30.27,NW,306,12.0,17.0,39,0.00,,,0.00,weatherlink.com 1.10,2013-04-20 17:38:00,
2013-04-20 12:53:00,37.1,13.0,30.27,NW,322,7.0,16.0,38,0.00,,,0.00,weatherlink.com 1.10,2013-04-20 17:53:00,
2013-04-20 13:08:00,37.9,14.0,30.27,North,9,8.0,15.0,38,0.00,,,0.00,weatherlink.com 1.10,2013-04-20 18:08:00,
2013-04-20 13:23:00,37.8,13.0,30.28,NNW,346,3.0,17.0,37,0.00,,,0.00,weatherlink.com 1.10,2013-04-20 18:23:00,
2013-04-20 13:38:00,37.5,12.0,30.28,NW,317,12.0,18.0,35,0.00,,,0.00,weatherlink.com 1.10,2013-04-20 18:38:00,
2013-04-20 13:53:00,38.3,15.0,30.28,North,360,6.0,15.0,38,0.00,,,0.00,weatherlink.com 1.10,2013-04-20 18:53:00,
2013-04-20 14:08:00,38.8,13.0,30.29,NNE,16,11.0,18.0,35,0.00,,,0.00,weatherlink.com 1.10,2013-04-20 19:08:00,
2013-04-20 14:23:00,38.4,13.0,30.29,North,355,4.0,16.0,36,0.00,,,0.00,weatherlink.com 1.10,2013-04-20 19:23:00,
2013-04-20 14:38:00,39.4,14.0,30.29,North,355,9.0,17.0,35,0.00,,,0.00,weatherlink.com 1.10,2013-04-20 19:38:00,
2013-04-20 14:53:00,39.6,13.0,30.30,NW,313,13.0,17.0,34,0.00,,,0.00,weatherlink.com 1.10,2013-04-20 19:53:00,
2013-04-20 15:08:00,40.5,15.0,30.30,NE,53,4.0,18.0,35,0.00,,,0.00,weatherlink.com 1.10,2013-04-20 20:08:00,
2013-04-20 15:23:00,40.7,14.0,30.30,NW,312,6.0,16.0,34,0.00,,,0.00,weatherlink.com 1.10,2013-04-20 20:23:00,
2013-04-20 15:38:00,40.7,12.0,30.30,NW,306,8.0,17.0,31,0.00,,,0.00,weatherlink.com 1.10,2013-04-20 20:38:00,
2013-04-20 15:53:00,39.9,12.0,30.30,NNE,14,10.0,17.0,32,0.00,,,0.00,weatherlink.com 1.10,2013-04-20 20:53:00,
2013-04-20 16:08:00,40.2,12.0,30.30,NW,326,7.0,14.0,31,0.00,,,0.00,weatherlink.com 1.10,2013-04-20 21:08:00,
2013-04-20 16:23:00,41.0,12.0,30.30,NE,36,4.0,17.0,31,0.00,,,0.00,weatherlink.com 1.10,2013-04-20 21:23:00,
2013-04-20 16:38:00,41.1,12.0,30.31,North,355,7.0,15.0,30,0.00,,,0.00,weatherlink.com 1.10,2013-04-20 21:38:00,
2013-04-20 16:53:00,42.3,13.0,30.31,NNW,341,6.0,10.0,31,0.00,,,0.00,weatherlink.com 1.10,2013-04-20 21:53:00,
2013-04-20 17:08:00,43.0,15.0,30.31,North,5,2.0,7.0,32,0.00,,,0.00,weatherlink.com 1.10,2013-04-20 22:08:00,
2013-04-20 17:23:00,42.3,14.0,30.31,North,351,3.0,9.0,32,0.00,,,0.00,weatherlink.com 1.10,2013-04-20 22:23:00,
2013-04-20 17:38:00,42.8,15.0,30.31,West,260,2.0,10.0,33,0.00,,,0.00,weatherlink.com 1.10,2013-04-20 22:38:00,
2013-04-20 17:53:00,43.3,15.0,30.31,NNE,15,6.0,8.0,32,0.00,,,0.00,weatherlink.com 1.10,2013-04-20 22:53:00,
2013-04-20 18:09:00,43.0,15.0,30.32,NNE,19,5.0,13.0,32,0.00,,,0.00,weatherlink.com 1.10,2013-04-20 23:09:00,
2013-04-20 18:24:00,43.2,14.0,30.32,North,355,2.0,8.0,31,0.00,,,0.00,weatherlink.com 1.10,2013-04-20 23:24:00,
2013-04-20 18:39:00,43.4,14.0,30.32,NNW,338,5.0,7.0,31,0.00,,,0.00,weatherlink.com 1.10,2013-04-20 23:39:00,
2013-04-20 18:54:00,43.0,15.0,30.32,NNW,341,2.0,6.0,32,0.00,,,0.00,weatherlink.com 1.10,2013-04-20 23:54:00,
2013-04-20 19:09:00,42.0,16.0,30.33,NNE,15,2.0,8.0,35,0.00,,,0.00,weatherlink.com 1.10,2013-04-21 00:09:00,
2013-04-20 19:24:00,41.4,17.0,30.33,ESE,119,1.0,9.0,38,0.00,,,0.00,weatherlink.com 1.10,2013-04-21 00:24:00,
2013-04-20 19:39:00,40.3,17.0,30.34,ENE,77,3.0,5.0,39,0.00,,,0.00,weatherlink.com 1.10,2013-04-21 00:39:00,
2013-04-20 19:54:00,39.5,17.0,30.34,East,91,3.0,6.0,40,0.00,,,0.00,weatherlink.com 1.10,2013-04-21 00:54:00,
2013-04-20 20:09:00,39.0,17.0,30.35,NE,56,4.0,6.0,41,0.00,,,0.00,weatherlink.com 1.10,2013-04-21 01:09:00,
2013-04-20 20:24:00,38.8,17.0,30.35,NW,320,0.0,6.0,41,0.00,,,0.00,weatherlink.com 1.10,2013-04-21 01:24:00,
2013-04-20 20:39:00,38.2,16.0,30.36,ENE,67,2.0,4.0,41,0.00,,,0.00,weatherlink.com 1.10,2013-04-21 01:39:00,
2013-04-20 20:54:00,37.7,16.0,30.37,ENE,72,2.0,4.0,41,0.00,,,0.00,weatherlink.com 1.10,2013-04-21 01:54:00,
2013-04-20 21:09:00,37.5,18.0,30.37,East,84,1.0,3.0,45,0.00,,,0.00,weatherlink.com 1.10,2013-04-21 02:09:00,
2013-04-20 21:24:00,37.5,17.0,30.38,ENE,70,2.0,4.0,44,0.00,,,0.00,weatherlink.com 1.10,2013-04-21 02:24:00,
2013-04-20 21:39:00,37.1,17.0,30.38,ENE,76,2.0,5.0,44,0.00,,,0.00,weatherlink.com 1.10,2013-04-21 02:39:00,
2013-04-20 21:54:00,36.4,18.0,30.38,ENE,78,2.0,5.0,48,0.00,,,0.00,weatherlink.com 1.10,2013-04-21 02:54:00,
2013-04-20 22:09:00,36.4,18.0,30.38,East,86,3.0,7.0,48,0.00,,,0.00,weatherlink.com 1.10,2013-04-21 03:09:00,
2013-04-20 22:24:00,36.3,19.0,30.38,ENE,76,3.0,7.0,49,0.00,,,0.00,weatherlink.com 1.10,2013-04-21 03:24:00,
2013-04-20 22:39:00,36.0,18.0,30.38,East,101,3.0,6.0,49,0.00,,,0.00,weatherlink.com 1.10,2013-04-21 03:39:00,
2013-04-20 22:54:00,36.0,19.0,30.38,East,98,1.0,5.0,51,0.00,,,0.00,weatherlink.com 1.10,2013-04-21 03:54:00,
2013-04-20 23:09:00,35.9,19.0,30.38,ESE,115,1.0,8.0,51,0.00,,,0.00,weatherlink.com 1.10,2013-04-21 04:09:00,
2013-04-20 23:24:00,35.8,19.0,30.38,ESE,123,4.0,9.0,50,0.00,,,0.00,weatherlink.com 1.10,2013-04-21 04:24:00,
2013-04-20 23:39:00,35.5,19.0,30.38,ESE,119,2.0,7.0,52,0.00,,,0.00,weatherlink.com 1.10,2013-04-21 04:39:00,
2013-04-20 23:54:00,35.3,19.0,30.38,ESE,103,3.0,9.0,52,0.00,,,0.00,weatherlink.com 1.10,2013-04-21 04:54:00,